Time;durP1;ratioP1;P1;durP2;ratioP2;P2;SDS_P1;SDS_P2;PMS_P1;PMS_P2;Temp;Humidity;BMP_temperature;BMP_pressure;BME280_temperature;BME280_humidity;BME280_pressure;Samples;Min_cycle;Max_cycle;Signal;HPM_P1;HPM_P2
2021/08/13 00:02:20;;;;;;;7.83;7.13;;;;;;;;;;5032606;28;20212;-82
2021/08/13 00:04:46;;;;;;;7.97;7.23;;;;;;;;;;5023684;28;20292;-82
2021/08/13 00:07:15;;;;;;;9.17;7.53;;;;;;;;;;5045074;28;20221;-82
2021/08/13 00:09:41;;;;;;;7.53;6.80;;;;;;;;;;5015827;28;20415;-82
2021/08/13 00:12:07;;;;;;;8.00;7.20;;;;;;;;;;5016404;28;20190;-82
2021/08/13 00:14:33;;;;;;;7.77;7.07;;;;;;;;;;5015176;28;20208;-81
2021/08/13 00:16:59;;;;;;;8.67;7.30;;;;;;;;;;5033359;28;20264;-81
2021/08/13 00:19:26;;;;;;;7.73;6.90;;;;;;;;;;5020672;28;20187;-81
2021/08/13 00:21:53;;;;;;;7.53;6.83;;;;;;;;;;5044762;28;20298;-82
2021/08/13 00:24:19;;;;;;;7.83;7.07;;;;;;;;;;5014898;28;20222;-81
2021/08/13 00:26:45;;;;;;;8.60;7.80;;;;;;;;;;5031669;28;20338;-82
2021/08/13 00:29:11;;;;;;;7.13;6.50;;;;;;;;;;5014814;28;20179;-82
2021/08/13 00:31:37;;;;;;;7.63;7.03;;;;;;;;;;5031428;28;20197;-82
2021/08/13 00:34:03;;;;;;;7.83;7.13;;;;;;;;;;5015951;28;20182;-82
2021/08/13 00:36:29;;;;;;;7.97;7.27;;;;;;;;;;5023987;28;20186;-82
2021/08/13 00:38:56;;;;;;;7.90;7.17;;;;;;;;;;5014847;28;20562;-82
2021/08/13 00:41:22;;;;;;;7.80;7.10;;;;;;;;;;5032363;28;20183;-81
2021/08/13 00:43:48;;;;;;;7.63;7.00;;;;;;;;;;5009551;28;20207;-81
2021/08/13 00:46:15;;;;;;;7.60;6.90;;;;;;;;;;5031731;28;20251;-82
2021/08/13 00:48:41;;;;;;;7.47;6.77;;;;;;;;;;5034672;28;20618;-82
2021/08/13 00:51:07;;;;;;;7.87;6.97;;;;;;;;;;5034201;28;20199;-82
2021/08/13 00:53:33;;;;;;;7.40;6.63;;;;;;;;;;5013840;28;20188;-82
2021/08/13 00:55:59;;;;;;;7.70;6.90;;;;;;;;;;5017988;28;20635;-82
2021/08/13 00:58:25;;;;;;;8.00;7.27;;;;;;;;;;5015130;28;20174;-82
2021/08/13 01:00:52;;;;;;;8.00;7.20;;;;;;;;;;5014515;28;20718;-81
2021/08/13 01:03:18;;;;;;;7.97;7.17;;;;;;;;;;5014837;28;20265;-82
2021/08/13 01:05:45;;;;;;;7.30;6.60;;;;;;;;;;5029784;28;20231;-82
2021/08/13 01:08:11;;;;;;;8.63;6.93;;;;;;;;;;5032198;28;20200;-82
2021/08/13 01:10:45;;;;;;;10.83;7.53;;;;;;;;;;5014431;28;20183;-82
2021/08/13 01:13:27;;;;;;;7.57;6.87;;;;;;;;;;5030559;28;20505;-82
2021/08/13 01:15:54;;;;;;;7.87;7.17;;;;;;;;;;5013472;28;20203;-82
2021/08/13 01:18:33;;;;;;;8.03;7.23;;;;;;;;;;5014787;28;20224;-82
2021/08/13 01:21:19;;;;;;;8.03;7.33;;;;;;;;;;5027721;28;20638;-82
2021/08/13 01:23:56;;;;;;;7.70;6.90;;;;;;;;;;5029315;28;20208;-82
2021/08/13 01:26:23;;;;;;;7.00;6.30;;;;;;;;;;5026108;28;20597;-82
2021/08/13 01:28:55;;;;;;;7.40;6.70;;;;;;;;;;5011593;28;20536;-82
2021/08/13 01:31:24;;;;;;;7.47;6.77;;;;;;;;;;5011466;28;20178;-82
2021/08/13 01:33:58;;;;;;;7.47;6.77;;;;;;;;;;5012006;28;20288;-82
2021/08/13 01:36:26;;;;;;;8.20;7.40;;;;;;;;;;5018445;28;20216;-82
2021/08/13 01:38:53;;;;;;;7.40;6.70;;;;;;;;;;5004705;28;20189;-82
2021/08/13 01:41:19;;;;;;;8.40;7.57;;;;;;;;;;5012479;28;20262;-82
2021/08/13 01:43:45;;;;;;;8.57;7.77;;;;;;;;;;5011761;28;20265;-82
2021/08/13 01:46:13;;;;;;;7.53;6.83;;;;;;;;;;5012306;28;20185;-82
2021/08/13 01:48:39;;;;;;;8.53;7.73;;;;;;;;;;5029688;28;20232;-82
2021/08/13 01:51:05;;;;;;;7.87;7.27;;;;;;;;;;5010645;28;20953;-82
2021/08/13 01:53:31;;;;;;;8.20;7.50;;;;;;;;;;5027158;28;20185;-82
2021/08/13 01:55:58;;;;;;;7.27;6.57;;;;;;;;;;5027477;28;20276;-82
2021/08/13 01:58:24;;;;;;;8.33;7.47;;;;;;;;;;5011160;28;20207;-82
2021/08/13 02:00:51;;;;;;;8.23;7.43;;;;;;;;;;5010294;28;20192;-82
2021/08/13 02:03:20;;;;;;;9.57;8.77;;;;;;;;;;5013696;28;20257;-83
2021/08/13 02:05:46;;;;;;;8.60;7.67;;;;;;;;;;5011726;28;20184;-83
2021/08/13 02:08:13;;;;;;;7.03;6.33;;;;;;;;;;5012723;28;20264;-82
2021/08/13 02:10:40;;;;;;;8.93;7.50;;;;;;;;;;5011608;28;20517;-83
2021/08/13 02:13:07;;;;;;;8.07;7.00;;;;;;;;;;5030598;28;20290;-82
2021/08/13 02:15:34;;;;;;;9.97;7.17;;;;;;;;;;5011569;28;20191;-82
2021/08/13 02:18:04;;;;;;;8.20;7.40;;;;;;;;;;5012348;28;20187;-82
2021/08/13 02:20:31;;;;;;;7.97;6.87;;;;;;;;;;5010120;28;20183;-82
2021/08/13 02:22:57;;;;;;;7.70;7.00;;;;;;;;;;5011874;28;20801;-82
2021/08/13 02:25:23;;;;;;;7.73;7.03;;;;;;;;;;5025750;28;20178;-82
2021/08/13 02:27:50;;;;;;;7.73;7.03;;;;;;;;;;5011961;28;20180;-82
2021/08/13 02:30:16;;;;;;;9.17;7.37;;;;;;;;;;5007893;28;20193;-82
2021/08/13 02:32:42;;;;;;;7.70;6.90;;;;;;;;;;5011535;28;20269;-82
2021/08/13 02:35:09;;;;;;;9.00;6.30;;;;;;;;;;5010184;28;20541;-82
2021/08/13 02:37:35;;;;;;;9.13;7.53;;;;;;;;;;5010847;28;20293;-82
2021/08/13 02:40:27;;;;;;;8.77;7.87;;;;;;;;;;5028923;28;20184;-82
2021/08/13 02:42:59;;;;;;;8.60;7.73;;;;;;;;;;5024329;28;20504;-82
2021/08/13 02:45:25;;;;;;;7.07;6.37;;;;;;;;;;5010162;28;20569;-82
2021/08/13 02:47:57;;;;;;;7.37;6.67;;;;;;;;;;5011154;28;20656;-81
2021/08/13 02:50:25;;;;;;;7.30;6.63;;;;;;;;;;5010271;28;20706;-82
2021/08/13 02:52:54;;;;;;;7.07;6.37;;;;;;;;;;5028894;28;20716;-82
2021/08/13 02:55:21;;;;;;;6.60;6.00;;;;;;;;;;5009799;28;20686;-82
2021/08/13 02:57:51;;;;;;;7.20;6.50;;;;;;;;;;5011045;28;20284;-82
2021/08/13 03:00:17;;;;;;;9.70;7.83;;;;;;;;;;5006042;28;20210;-82
2021/08/13 03:02:46;;;;;;;7.17;6.40;;;;;;;;;;5011949;28;20298;-82
2021/08/13 03:05:13;;;;;;;7.90;7.10;;;;;;;;;;5012163;28;20187;-82
2021/08/13 03:07:40;;;;;;;7.70;7.00;;;;;;;;;;5028710;28;20649;-82
2021/08/13 03:10:07;;;;;;;7.53;6.90;;;;;;;;;;5010647;28;20517;-82
2021/08/13 03:12:33;;;;;;;8.13;6.53;;;;;;;;;;5010990;28;20555;-82
2021/08/13 03:15:00;;;;;;;8.10;7.13;;;;;;;;;;5010523;28;20190;-82
2021/08/13 03:17:26;;;;;;;7.63;6.17;;;;;;;;;;5013815;28;20186;-82
2021/08/13 03:19:53;;;;;;;7.87;7.07;;;;;;;;;;5024504;28;20188;-82
2021/08/13 03:22:20;;;;;;;7.73;7.00;;;;;;;;;;5044097;28;20347;-82
2021/08/13 03:24:46;;;;;;;7.33;6.63;;;;;;;;;;5045964;28;20202;-82
2021/08/13 03:27:12;;;;;;;6.87;6.17;;;;;;;;;;5050089;28;20189;-82
2021/08/13 03:29:38;;;;;;;7.60;6.87;;;;;;;;;;5027407;28;20198;-82
2021/08/13 03:32:04;;;;;;;9.10;8.33;;;;;;;;;;5048616;28;20179;-81
2021/08/13 03:34:31;;;;;;;7.93;7.13;;;;;;;;;;5050247;28;20186;-82
2021/08/13 03:37:01;;;;;;;9.63;7.37;;;;;;;;;;5048391;28;20226;-82
2021/08/13 03:39:27;;;;;;;8.07;7.30;;;;;;;;;;5019948;28;20177;-82
2021/08/13 03:41:53;;;;;;;7.20;6.50;;;;;;;;;;5017830;28;20181;-82
2021/08/13 03:44:19;;;;;;;7.40;6.70;;;;;;;;;;5016742;28;20174;-82
2021/08/13 03:46:45;;;;;;;8.53;7.27;;;;;;;;;;5017336;28;20181;-82
2021/08/13 03:49:11;;;;;;;6.80;6.10;;;;;;;;;;5016776;28;20519;-82
2021/08/13 03:51:37;;;;;;;7.77;6.97;;;;;;;;;;5033209;28;20272;-82
2021/08/13 03:54:05;;;;;;;7.60;6.90;;;;;;;;;;5014688;28;20221;-82
2021/08/13 03:56:31;;;;;;;6.73;6.13;;;;;;;;;;5016615;28;20178;-82
2021/08/13 03:58:57;;;;;;;7.87;7.17;;;;;;;;;;5014149;28;20697;-82
2021/08/13 04:01:23;;;;;;;7.43;6.73;;;;;;;;;;5013466;28;20717;-82
2021/08/13 04:03:49;;;;;;;9.33;7.17;;;;;;;;;;5013730;28;20296;-82
2021/08/13 04:06:15;;;;;;;7.97;6.60;;;;;;;;;;5013734;28;20204;-82
2021/08/13 04:08:42;;;;;;;6.93;6.27;;;;;;;;;;5015251;28;20184;-82
2021/08/13 04:11:08;;;;;;;7.60;6.90;;;;;;;;;;5032786;28;20236;-82
2021/08/13 04:13:34;;;;;;;8.17;6.43;;;;;;;;;;5014511;28;20556;-82
2021/08/13 04:16:00;;;;;;;7.40;6.70;;;;;;;;;;5013846;28;20202;-82
2021/08/13 04:18:26;;;;;;;7.53;6.67;;;;;;;;;;5012384;28;20188;-82
2021/08/13 04:20:52;;;;;;;8.30;7.53;;;;;;;;;;5029392;28;20194;-82
2021/08/13 04:23:18;;;;;;;9.10;8.23;;;;;;;;;;5013800;28;20198;-82
2021/08/13 04:25:44;;;;;;;8.60;6.93;;;;;;;;;;5041282;28;20174;-83
2021/08/13 04:28:10;;;;;;;6.90;6.30;;;;;;;;;;5032339;28;20178;-82
2021/08/13 04:30:36;;;;;;;7.97;7.17;;;;;;;;;;5014205;28;20546;-83
2021/08/13 04:33:09;;;;;;;6.93;6.23;;;;;;;;;;5014472;28;20189;-82
2021/08/13 04:35:35;;;;;;;7.33;6.63;;;;;;;;;;5027468;28;20182;-82
2021/08/13 04:38:01;;;;;;;7.67;6.87;;;;;;;;;;5015939;28;20198;-82
2021/08/13 04:40:27;;;;;;;8.00;7.20;;;;;;;;;;5013724;28;20218;-82
2021/08/13 04:42:53;;;;;;;7.30;6.70;;;;;;;;;;5013852;28;20203;-82
2021/08/13 04:45:19;;;;;;;8.00;7.17;;;;;;;;;;5013441;28;20210;-82
2021/08/13 04:47:45;;;;;;;7.93;7.13;;;;;;;;;;5012479;28;20725;-82
2021/08/13 04:50:11;;;;;;;6.70;6.10;;;;;;;;;;5011902;28;20253;-82
2021/08/13 04:52:47;;;;;;;8.10;7.30;;;;;;;;;;5014267;28;20598;-82
2021/08/13 04:55:17;;;;;;;6.93;6.23;;;;;;;;;;5011851;28;20275;-82
2021/08/13 04:57:43;;;;;;;6.40;5.80;;;;;;;;;;5030148;28;20193;-82
2021/08/13 05:00:09;;;;;;;8.70;7.80;;;;;;;;;;5029870;28;20182;-82
2021/08/13 05:02:35;;;;;;;8.30;7.43;;;;;;;;;;5012535;28;20227;-82
2021/08/13 05:05:02;;;;;;;8.57;7.77;;;;;;;;;;5012915;28;20209;-82
2021/08/13 05:07:32;;;;;;;7.57;6.87;;;;;;;;;;5026080;28;20209;-82
2021/08/13 05:09:58;;;;;;;7.07;6.47;;;;;;;;;;5025261;28;20189;-83
2021/08/13 05:12:24;;;;;;;6.83;6.17;;;;;;;;;;5013474;28;20545;-83
2021/08/13 05:14:50;;;;;;;8.23;7.53;;;;;;;;;;5012512;28;20189;-82
2021/08/13 05:17:16;;;;;;;7.87;7.10;;;;;;;;;;5031475;28;20277;-82
2021/08/13 05:19:42;;;;;;;8.57;6.60;;;;;;;;;;5030460;28;20255;-83
2021/08/13 05:22:11;;;;;;;7.77;6.97;;;;;;;;;;5032442;28;20197;-82
2021/08/13 05:24:38;;;;;;;7.00;6.30;;;;;;;;;;5011521;28;20296;-82
2021/08/13 05:27:04;;;;;;;6.73;6.10;;;;;;;;;;5012161;28;20192;-83
2021/08/13 05:29:30;;;;;;;7.90;7.10;;;;;;;;;;5016130;28;20181;-82
2021/08/13 05:31:56;;;;;;;7.47;6.70;;;;;;;;;;5030180;28;20236;-82
2021/08/13 05:34:22;;;;;;;8.13;6.97;;;;;;;;;;5012685;28;20221;-82
2021/08/13 05:36:48;;;;;;;7.17;6.57;;;;;;;;;;5005796;28;20186;-82
2021/08/13 05:39:14;;;;;;;7.20;6.57;;;;;;;;;;5012451;28;20264;-82
2021/08/13 05:41:40;;;;;;;7.10;6.40;;;;;;;;;;5013261;28;20614;-82
2021/08/13 05:44:06;;;;;;;7.63;6.93;;;;;;;;;;5014065;28;20696;-83
2021/08/13 05:46:32;;;;;;;7.83;7.10;;;;;;;;;;5031927;28;20178;-82
2021/08/13 05:49:00;;;;;;;7.43;6.73;;;;;;;;;;5013656;28;20177;-82
2021/08/13 05:51:26;;;;;;;8.00;7.20;;;;;;;;;;5013749;28;22052;-80
2021/08/13 05:53:52;;;;;;;7.63;6.70;;;;;;;;;;5031723;28;20221;-80
2021/08/13 05:56:18;;;;;;;6.93;6.33;;;;;;;;;;5014538;28;20166;-81
2021/08/13 05:58:44;;;;;;;7.60;6.90;;;;;;;;;;5013671;28;20599;-81
2021/08/13 06:01:10;;;;;;;7.83;7.03;;;;;;;;;;5011357;28;20186;-80
2021/08/13 06:03:36;;;;;;;7.23;6.60;;;;;;;;;;5030516;28;20221;-80
2021/08/13 06:06:02;;;;;;;7.80;7.07;;;;;;;;;;5029361;28;20198;-80
2021/08/13 06:08:28;;;;;;;7.13;6.43;;;;;;;;;;5014193;28;20494;-80
2021/08/13 06:10:54;;;;;;;7.70;7.00;;;;;;;;;;5031308;28;20185;-80
2021/08/13 06:13:20;;;;;;;7.83;7.03;;;;;;;;;;5014515;28;20174;-80
2021/08/13 06:15:47;;;;;;;7.60;6.87;;;;;;;;;;5031982;28;20182;-80
2021/08/13 06:18:13;;;;;;;7.50;6.80;;;;;;;;;;5032077;28;20177;-80
2021/08/13 06:20:39;;;;;;;8.73;7.93;;;;;;;;;;5013300;28;20190;-81
2021/08/13 06:23:05;;;;;;;7.60;6.80;;;;;;;;;;5013794;28;20197;-80
2021/08/13 06:25:32;;;;;;;7.93;7.20;;;;;;;;;;5031002;28;20235;-80
2021/08/13 06:27:58;;;;;;;7.70;7.00;;;;;;;;;;5031370;28;20177;-80
2021/08/13 06:30:24;;;;;;;7.87;7.17;;;;;;;;;;5013096;28;20196;-80
2021/08/13 06:32:55;;;;;;;7.57;6.87;;;;;;;;;;5013854;28;20260;-79
2021/08/13 06:35:21;;;;;;;7.57;6.83;;;;;;;;;;5030730;28;20577;-80
2021/08/13 06:37:51;;;;;;;7.37;6.67;;;;;;;;;;5031699;28;20547;-80
2021/08/13 06:40:17;;;;;;;7.43;6.63;;;;;;;;;;5013258;28;20193;-80
2021/08/13 06:42:44;;;;;;;7.67;6.87;;;;;;;;;;5013449;28;20590;-80
2021/08/13 06:45:11;;;;;;;8.37;7.17;;;;;;;;;;5030805;28;20530;-80
2021/08/13 06:47:37;;;;;;;7.97;7.17;;;;;;;;;;5013448;28;20182;-80
2021/08/13 06:50:03;;;;;;;8.50;6.73;;;;;;;;;;5030963;28;20264;-80
2021/08/13 06:52:29;;;;;;;8.53;7.73;;;;;;;;;;5020851;28;20182;-80
2021/08/13 06:54:55;;;;;;;7.70;6.90;;;;;;;;;;5018095;28;20223;-80
2021/08/13 06:57:21;;;;;;;8.63;7.50;;;;;;;;;;5011584;28;20226;-80
2021/08/13 06:59:47;;;;;;;8.03;7.23;;;;;;;;;;5022927;28;20645;-81
2021/08/13 07:02:14;;;;;;;9.20;7.73;;;;;;;;;;5031497;28;20205;-81
2021/08/13 07:04:40;;;;;;;8.57;7.43;;;;;;;;;;5019994;28;20194;-80
2021/08/13 07:07:06;;;;;;;10.90;8.23;;;;;;;;;;5014359;28;20198;-80
2021/08/13 07:09:32;;;;;;;9.13;7.77;;;;;;;;;;5013192;28;20193;-80
2021/08/13 07:11:58;;;;;;;8.97;8.10;;;;;;;;;;5027289;28;20846;-80
2021/08/13 07:14:24;;;;;;;9.13;8.00;;;;;;;;;;5031432;28;20627;-80
2021/08/13 07:16:50;;;;;;;8.93;8.03;;;;;;;;;;5030026;28;20630;-80
2021/08/13 07:19:16;;;;;;;8.53;7.47;;;;;;;;;;5013033;28;20551;-80
2021/08/13 07:21:42;;;;;;;10.00;8.13;;;;;;;;;;5012231;28;20172;-81
2021/08/13 07:24:08;;;;;;;9.33;7.80;;;;;;;;;;5026916;28;20200;-80
2021/08/13 07:26:34;;;;;;;22.17;9.90;;;;;;;;;;5031181;28;20249;-81
2021/08/13 07:29:00;;;;;;;8.97;7.87;;;;;;;;;;5031697;28;20176;-81
2021/08/13 07:31:26;;;;;;;10.63;9.60;;;;;;;;;;5026509;28;20603;-82
2021/08/13 07:33:52;;;;;;;9.90;8.98;;;;;;;;;;5028266;28;20437;-81
2021/08/13 07:36:24;;;;;;;9.57;8.67;;;;;;;;;;5014124;28;20195;-81
2021/08/13 07:38:50;;;;;;;9.47;8.57;;;;;;;;;;5014055;28;20181;-80
2021/08/13 07:41:16;;;;;;;10.53;9.30;;;;;;;;;;5013358;28;20210;-81
2021/08/13 07:43:42;;;;;;;10.70;9.50;;;;;;;;;;5012987;28;20241;-80
2021/08/13 07:46:10;;;;;;;10.63;9.07;;;;;;;;;;5012607;28;20596;-81
2021/08/13 07:48:36;;;;;;;14.27;10.53;;;;;;;;;;5012960;28;20657;-81
2021/08/13 07:51:02;;;;;;;11.20;10.10;;;;;;;;;;5029936;28;20182;-80
2021/08/13 07:53:28;;;;;;;10.87;9.83;;;;;;;;;;5012955;28;20190;-80
2021/08/13 07:55:57;;;;;;;10.23;9.23;;;;;;;;;;5030303;28;20239;-80
2021/08/13 07:58:26;;;;;;;11.07;9.77;;;;;;;;;;5011592;28;20262;-81
2021/08/13 08:00:52;;;;;;;12.13;9.63;;;;;;;;;;5035257;28;20209;-81
2021/08/13 08:03:19;;;;;;;13.57;10.50;;;;;;;;;;5012787;28;20403;-81
2021/08/13 08:05:45;;;;;;;11.50;10.40;;;;;;;;;;5010431;28;20189;-81
2021/08/13 08:08:11;;;;;;;14.30;11.40;;;;;;;;;;5011896;28;20588;-82
2021/08/13 08:10:37;;;;;;;14.23;12.73;;;;;;;;;;5012279;28;20236;-81
2021/08/13 08:13:03;;;;;;;12.80;11.43;;;;;;;;;;5016840;28;20182;-80
2021/08/13 08:15:30;;;;;;;15.37;11.93;;;;;;;;;;5026831;28;20289;-81
2021/08/13 08:17:56;;;;;;;14.07;12.40;;;;;;;;;;5003139;28;20188;-80
2021/08/13 08:20:22;;;;;;;12.93;11.73;;;;;;;;;;5014927;28;20190;-81
2021/08/13 08:22:49;;;;;;;16.57;14.53;;;;;;;;;;5030465;28;20305;-81
2021/08/13 08:25:15;;;;;;;14.93;13.33;;;;;;;;;;5033179;28;20179;-80
2021/08/13 08:27:41;;;;;;;13.93;12.50;;;;;;;;;;5011569;28;20185;-81
2021/08/13 08:30:07;;;;;;;14.30;12.60;;;;;;;;;;5015926;28;20181;-81
2021/08/13 08:32:33;;;;;;;14.63;13.13;;;;;;;;;;5030035;28;20192;-80
2021/08/13 08:34:59;;;;;;;19.37;16.53;;;;;;;;;;5026409;28;20185;-80
2021/08/13 08:37:25;;;;;;;19.23;15.23;;;;;;;;;;5033887;28;20277;-80
2021/08/13 08:39:51;;;;;;;16.93;15.23;;;;;;;;;;5033146;28;20217;-81
2021/08/13 08:42:21;;;;;;;21.77;16.30;;;;;;;;;;5015341;28;20212;-80
2021/08/13 08:44:47;;;;;;;16.60;14.90;;;;;;;;;;5018169;28;20203;-80
2021/08/13 08:47:16;;;;;;;17.90;16.03;;;;;;;;;;5015610;28;20177;-80
2021/08/13 08:49:43;;;;;;;16.77;15.03;;;;;;;;;;5032934;28;20254;-80
2021/08/13 08:52:10;;;;;;;17.37;15.50;;;;;;;;;;5015178;28;20205;-80
2021/08/13 08:54:36;;;;;;;17.70;15.57;;;;;;;;;;5014583;28;20218;-80
2021/08/13 08:57:04;;;;;;;17.83;15.93;;;;;;;;;;5015345;28;20170;-80
2021/08/13 08:59:30;;;;;;;17.03;15.23;;;;;;;;;;5014223;28;20174;-80
2021/08/13 09:01:57;;;;;;;20.87;16.90;;;;;;;;;;5013270;28;20172;-80
2021/08/13 09:04:23;;;;;;;19.73;17.83;;;;;;;;;;5004285;28;20213;-80
2021/08/13 09:06:54;;;;;;;18.83;16.03;;;;;;;;;;5014576;28;20198;-80
2021/08/13 09:09:20;;;;;;;21.60;16.43;;;;;;;;;;5017111;28;20185;-81
2021/08/13 09:11:46;;;;;;;19.83;17.30;;;;;;;;;;5011449;28;20183;-81
2021/08/13 09:14:13;;;;;;;18.17;15.90;;;;;;;;;;5014787;28;20193;-80
2021/08/13 09:16:40;;;;;;;17.43;15.40;;;;;;;;;;5014796;28;20725;-80
2021/08/13 09:19:09;;;;;;;18.30;15.27;;;;;;;;;;5017259;28;20237;-80
2021/08/13 09:21:36;;;;;;;17.63;15.10;;;;;;;;;;5018671;28;20664;-80
2021/08/13 09:24:10;;;;;;;19.17;15.63;;;;;;;;;;5031817;28;20201;-80
2021/08/13 09:26:45;;;;;;;16.77;14.67;;;;;;;;;;5028209;28;20174;-80
2021/08/13 09:29:12;;;;;;;18.50;14.30;;;;;;;;;;5014129;28;20181;-80
2021/08/13 09:31:39;;;;;;;15.37;12.60;;;;;;;;;;5014415;28;20276;-80
2021/08/13 09:34:10;;;;;;;17.03;13.67;;;;;;;;;;5014165;28;20202;-79
2021/08/13 09:36:38;;;;;;;13.67;12.27;;;;;;;;;;5012863;28;20193;-80
2021/08/13 09:39:11;;;;;;;12.47;11.23;;;;;;;;;;5013978;28;20636;-81
2021/08/13 09:41:50;;;;;;;12.10;10.83;;;;;;;;;;5014421;28;20192;-80
2021/08/13 09:44:43;;;;;;;11.73;10.10;;;;;;;;;;5006245;28;20291;-80
2021/08/13 09:47:10;;;;;;;9.90;8.60;;;;;;;;;;4991875;28;20285;-80
2021/08/13 09:49:37;;;;;;;8.80;7.90;;;;;;;;;;5004089;28;20246;-81
2021/08/13 09:52:12;;;;;;;8.03;6.90;;;;;;;;;;5014332;28;20224;-81
2021/08/13 09:54:38;;;;;;;8.23;7.43;;;;;;;;;;5003994;28;20305;-81
2021/08/13 09:57:08;;;;;;;7.80;6.93;;;;;;;;;;5010739;28;20661;-80
2021/08/13 09:59:34;;;;;;;8.83;6.80;;;;;;;;;;4996563;28;20193;-81
2021/08/13 10:02:09;;;;;;;6.73;6.13;;;;;;;;;;5010424;28;20543;-80
2021/08/13 10:04:36;;;;;;;6.97;5.93;;;;;;;;;;4996121;28;20208;-81
2021/08/13 10:07:02;;;;;;;6.67;6.00;;;;;;;;;;4994125;28;21028;-81
2021/08/13 10:09:29;;;;;;;8.63;6.40;;;;;;;;;;5012193;28;20533;-81
2021/08/13 10:12:01;;;;;;;6.87;6.17;;;;;;;;;;4994299;28;20209;-81
2021/08/13 10:14:31;;;;;;;7.27;6.33;;;;;;;;;;4995242;28;20171;-81
2021/08/13 10:17:13;;;;;;;6.20;5.60;;;;;;;;;;5014048;28;20178;-81
2021/08/13 10:19:51;;;;;;;7.30;6.27;;;;;;;;;;5015419;28;20175;-81
2021/08/13 10:22:19;;;;;;;6.67;5.90;;;;;;;;;;5011998;28;20216;-81
2021/08/13 10:24:46;;;;;;;5.93;5.33;;;;;;;;;;4990449;28;20191;-81
2021/08/13 10:27:13;;;;;;;6.67;6.07;;;;;;;;;;4974701;28;20673;-81
2021/08/13 10:29:39;;;;;;;9.73;5.50;;;;;;;;;;5007376;28;20638;-81
2021/08/13 10:32:05;;;;;;;6.47;4.73;;;;;;;;;;5006550;28;20632;-81
2021/08/13 10:34:31;;;;;;;5.63;4.65;;;;;;;;;;5013474;28;20423;-81
2021/08/13 10:36:58;;;;;;;5.00;4.20;;;;;;;;;;4993415;28;20253;-81
2021/08/13 10:39:26;;;;;;;5.63;4.47;;;;;;;;;;4993414;28;20178;-81
2021/08/13 10:41:56;;;;;;;4.00;3.60;;;;;;;;;;4992886;28;20182;-81
2021/08/13 10:44:25;;;;;;;4.80;3.70;;;;;;;;;;5011549;28;20241;-82
2021/08/13 10:46:53;;;;;;;5.00;4.20;;;;;;;;;;4994193;28;20224;-82
2021/08/13 10:49:23;;;;;;;5.63;3.50;;;;;;;;;;4993284;28;20661;-81
2021/08/13 10:52:02;;;;;;;4.33;3.93;;;;;;;;;;4993924;28;20178;-81
2021/08/13 10:54:42;;;;;;;3.83;3.53;;;;;;;;;;5003085;28;20263;-81
2021/08/13 10:57:09;;;;;;;5.63;3.77;;;;;;;;;;5014376;28;20686;-81
2021/08/13 10:59:41;;;;;;;4.47;4.07;;;;;;;;;;5013911;28;20489;-81
2021/08/13 11:02:11;;;;;;;4.37;3.97;;;;;;;;;;5013591;28;20177;-81
2021/08/13 11:04:41;;;;;;;3.70;3.20;;;;;;;;;;5013717;28;20190;-81
2021/08/13 11:07:07;;;;;;;3.87;3.50;;;;;;;;;;5015652;28;20914;-81
2021/08/13 11:09:37;;;;;;;3.13;2.90;;;;;;;;;;5032935;28;20178;-80
2021/08/13 11:12:04;;;;;;;4.70;3.17;;;;;;;;;;5031186;28;20644;-81
2021/08/13 11:14:47;;;;;;;4.50;3.10;;;;;;;;;;5023195;28;20214;-81
2021/08/13 11:17:46;;;;;;;3.03;2.73;;;;;;;;;;5014993;28;20213;-81
2021/08/13 11:20:13;;;;;;;2.93;2.73;;;;;;;;;;4981932;28;20720;-80
2021/08/13 11:22:40;;;;;;;2.97;2.67;;;;;;;;;;5032375;28;20197;-80
2021/08/13 11:25:07;;;;;;;3.17;2.40;;;;;;;;;;5001380;28;20196;-81
2021/08/13 11:27:33;;;;;;;3.00;2.70;;;;;;;;;;5005704;28;20241;-80
2021/08/13 11:29:59;;;;;;;3.17;2.53;;;;;;;;;;5014425;28;20518;-80
2021/08/13 11:32:27;;;;;;;2.90;2.60;;;;;;;;;;5014827;28;20189;-80
2021/08/13 11:35:02;;;;;;;2.80;2.60;;;;;;;;;;5014181;28;20196;-81
2021/08/13 11:37:28;;;;;;;2.60;2.40;;;;;;;;;;5015088;28;20271;-80
2021/08/13 11:40:07;;;;;;;3.30;2.70;;;;;;;;;;5008565;28;20185;-80
2021/08/13 11:42:35;;;;;;;2.60;2.40;;;;;;;;;;5012780;28;20284;-81
2021/08/13 11:45:06;;;;;;;3.20;2.67;;;;;;;;;;5013763;28;20638;-81
2021/08/13 11:47:33;;;;;;;4.97;2.83;;;;;;;;;;5032560;28;20189;-81
2021/08/13 11:50:03;;;;;;;2.40;2.20;;;;;;;;;;5017007;28;20227;-80
2021/08/13 11:52:32;;;;;;;4.53;3.10;;;;;;;;;;5024810;28;20728;-80
2021/08/13 11:54:58;;;;;;;4.77;2.97;;;;;;;;;;5013637;28;20264;-80
2021/08/13 11:57:24;;;;;;;3.03;2.67;;;;;;;;;;4997390;28;20261;-80
2021/08/13 11:59:52;;;;;;;3.27;2.87;;;;;;;;;;4997451;28;20640;-81
2021/08/13 12:02:29;;;;;;;3.70;2.83;;;;;;;;;;4997980;28;20194;-80
2021/08/13 12:05:08;;;;;;;3.63;2.47;;;;;;;;;;4997203;28;20630;-82
2021/08/13 12:07:34;;;;;;;2.83;2.63;;;;;;;;;;4997740;28;20228;-81
2021/08/13 12:10:09;;;;;;;4.10;2.83;;;;;;;;;;4997352;28;20237;-81
2021/08/13 12:12:36;;;;;;;2.60;2.40;;;;;;;;;;4997629;28;20186;-80
2021/08/13 12:15:02;;;;;;;3.07;2.77;;;;;;;;;;5014539;28;20265;-80
2021/08/13 12:17:28;;;;;;;3.03;2.80;;;;;;;;;;4997088;28;20187;-81
2021/08/13 12:19:55;;;;;;;3.23;2.93;;;;;;;;;;5013929;28;20198;-80
2021/08/13 12:22:34;;;;;;;4.33;2.50;;;;;;;;;;4991671;28;20256;-80
2021/08/13 12:25:01;;;;;;;3.77;2.47;;;;;;;;;;5010568;28;20179;-81
2021/08/13 12:27:30;;;;;;;4.60;3.17;;;;;;;;;;5014785;28;20646;-80
2021/08/13 12:29:57;;;;;;;7.30;2.70;;;;;;;;;;4997315;28;20219;-80
2021/08/13 12:32:39;;;;;;;3.47;3.00;;;;;;;;;;4996611;28;20217;-81
2021/08/13 12:35:06;;;;;;;4.53;2.87;;;;;;;;;;5014416;28;20544;-81
2021/08/13 12:37:33;;;;;;;3.50;2.95;;;;;;;;;;4996048;28;20443;-80
2021/08/13 12:40:00;;;;;;;3.20;2.90;;;;;;;;;;5013334;28;20526;-80
2021/08/13 12:42:26;;;;;;;3.90;2.90;;;;;;;;;;5013497;28;20199;-80
2021/08/13 12:44:52;;;;;;;3.10;2.80;;;;;;;;;;4984201;28;20278;-81
2021/08/13 12:47:19;;;;;;;4.60;3.00;;;;;;;;;;5012743;28;20241;-81
2021/08/13 12:49:46;;;;;;;3.13;2.73;;;;;;;;;;4996097;28;20277;-81
2021/08/13 12:52:16;;;;;;;6.10;3.10;;;;;;;;;;4996593;28;20188;-81
2021/08/13 12:54:44;;;;;;;4.13;2.40;;;;;;;;;;5007750;28;20249;-81
2021/08/13 12:57:13;;;;;;;3.10;2.33;;;;;;;;;;5015374;28;20281;-81
2021/08/13 12:59:45;;;;;;;2.73;2.30;;;;;;;;;;5016289;28;20190;-81
2021/08/13 13:02:23;;;;;;;2.80;2.60;;;;;;;;;;5016669;28;20828;-82
2021/08/13 13:04:49;;;;;;;7.20;2.57;;;;;;;;;;5012783;28;20181;-82
2021/08/13 13:07:28;;;;;;;2.97;2.77;;;;;;;;;;5015093;28;20231;-82
2021/08/13 13:09:54;;;;;;;3.97;3.00;;;;;;;;;;5008069;28;20193;-81
2021/08/13 13:12:29;;;;;;;3.10;2.57;;;;;;;;;;5018807;28;20248;-80
2021/08/13 13:14:56;;;;;;;2.77;2.57;;;;;;;;;;5020270;28;20530;-81
2021/08/13 13:17:22;;;;;;;3.23;2.50;;;;;;;;;;5015864;28;20183;-81
2021/08/13 13:20:08;;;;;;;2.80;2.50;;;;;;;;;;5016243;28;20649;-82
2021/08/13 13:22:35;;;;;;;3.10;2.80;;;;;;;;;;5017498;28;20553;-82
2021/08/13 13:25:10;;;;;;;3.20;2.63;;;;;;;;;;5015930;28;20177;-82
2021/08/13 13:27:51;;;;;;;4.30;2.97;;;;;;;;;;5015603;28;20199;-82
2021/08/13 13:30:37;;;;;;;3.53;2.83;;;;;;;;;;5013643;28;20203;-81
2021/08/13 13:33:12;;;;;;;3.63;2.90;;;;;;;;;;5020556;28;20180;-82
2021/08/13 13:35:39;;;;;;;4.47;2.97;;;;;;;;;;5013424;28;20188;-82
2021/08/13 13:38:05;;;;;;;3.00;2.70;;;;;;;;;;5014507;28;20267;-82
2021/08/13 13:40:32;;;;;;;2.67;2.47;;;;;;;;;;5033223;28;20262;-82
2021/08/13 13:42:59;;;;;;;2.90;2.60;;;;;;;;;;5032485;28;20218;-83
2021/08/13 13:45:25;;;;;;;3.28;2.97;;;;;;;;;;5033222;28;20467;-83
2021/08/13 13:47:52;;;;;;;3.77;3.17;;;;;;;;;;5015407;28;20173;-81
2021/08/13 13:50:18;;;;;;;4.37;3.10;;;;;;;;;;5015637;28;20348;-83
2021/08/13 13:52:44;;;;;;;3.60;2.60;;;;;;;;;;5015445;28;20487;-82
2021/08/13 13:55:11;;;;;;;2.67;2.47;;;;;;;;;;5018837;28;20291;-83
2021/08/13 13:57:37;;;;;;;3.93;3.20;;;;;;;;;;5028340;28;20247;-83
2021/08/13 14:00:05;;;;;;;3.97;3.13;;;;;;;;;;5010586;28;21144;-83
2021/08/13 14:02:31;;;;;;;3.80;3.23;;;;;;;;;;5042717;28;20212;-83
2021/08/13 14:05:10;;;;;;;4.93;3.30;;;;;;;;;;5028420;28;20197;-83
2021/08/13 14:07:37;;;;;;;4.13;3.20;;;;;;;;;;5023654;28;20285;-83
2021/08/13 14:10:05;;;;;;;4.87;2.97;;;;;;;;;;5027786;28;20212;-82
2021/08/13 14:12:31;;;;;;;3.90;3.50;;;;;;;;;;5023444;28;20182;-82
2021/08/13 14:14:57;;;;;;;4.13;3.70;;;;;;;;;;5026051;28;20189;-83
2021/08/13 14:17:23;;;;;;;5.57;3.33;;;;;;;;;;5033900;28;20177;-82
2021/08/13 14:19:49;;;;;;;4.90;3.63;;;;;;;;;;5014754;28;20178;-82
2021/08/13 14:22:15;;;;;;;5.70;3.83;;;;;;;;;;5032458;28;20624;-83
2021/08/13 14:24:41;;;;;;;6.70;3.47;;;;;;;;;;5013335;28;20182;-83
2021/08/13 14:27:11;;;;;;;4.87;4.20;;;;;;;;;;5040362;28;20182;-82
2021/08/13 14:29:37;;;;;;;7.53;4.73;;;;;;;;;;5014625;28;20292;-82
2021/08/13 14:32:04;;;;;;;5.53;4.10;;;;;;;;;;5014777;28;20637;-81
2021/08/13 14:34:30;;;;;;;6.13;4.20;;;;;;;;;;5031847;28;20253;-81
2021/08/13 14:36:56;;;;;;;7.93;4.07;;;;;;;;;;5014182;28;20277;-82
2021/08/13 14:39:22;;;;;;;5.40;4.43;;;;;;;;;;5032783;28;20184;-82
2021/08/13 14:41:48;;;;;;;4.83;4.30;;;;;;;;;;5015010;28;20178;-82
2021/08/13 14:44:14;;;;;;;4.93;4.10;;;;;;;;;;5014680;28;20202;-82